sensor_id;sensor_type;location;lat;lon;timestamp;P1;durP1;ratioP1;P2;durP2;ratioP2
72920;SDS011;61064;51.654;5.476;2022-08-18T00:01:20;41.45;;;27.60;;
72920;SDS011;61064;51.654;5.476;2022-08-18T00:03:47;43.83;;;26.92;;
72920;SDS011;61064;51.654;5.476;2022-08-18T00:06:14;41.03;;;27.15;;
72920;SDS011;61064;51.654;5.476;2022-08-18T00:08:40;41.55;;;27.33;;
72920;SDS011;61064;51.654;5.476;2022-08-18T00:11:05;41.70;;;27.77;;
72920;SDS011;61064;51.654;5.476;2022-08-18T00:13:31;43.03;;;27.17;;
72920;SDS011;61064;51.654;5.476;2022-08-18T00:15:56;39.70;;;25.83;;
72920;SDS011;61064;51.654;5.476;2022-08-18T00:18:22;43.30;;;27.80;;
72920;SDS011;61064;51.654;5.476;2022-08-18T00:20:47;41.70;;;26.90;;
72920;SDS011;61064;51.654;5.476;2022-08-18T00:23:13;41.20;;;26.37;;
72920;SDS011;61064;51.654;5.476;2022-08-18T00:25:39;43.42;;;26.40;;
72920;SDS011;61064;51.654;5.476;2022-08-18T00:28:04;42.63;;;27.20;;
72920;SDS011;61064;51.654;5.476;2022-08-18T00:30:31;38.85;;;26.08;;
72920;SDS011;61064;51.654;5.476;2022-08-18T00:32:57;39.42;;;25.60;;
72920;SDS011;61064;51.654;5.476;2022-08-18T00:35:34;38.60;;;24.92;;
72920;SDS011;61064;51.654;5.476;2022-08-18T00:38:02;38.72;;;25.35;;
72920;SDS011;61064;51.654;5.476;2022-08-18T00:40:40;40.87;;;24.73;;
72920;SDS011;61064;51.654;5.476;2022-08-18T00:43:16;42.00;;;25.35;;
72920;SDS011;61064;51.654;5.476;2022-08-18T00:45:45;35.97;;;24.83;;
72920;SDS011;61064;51.654;5.476;2022-08-18T00:48:12;33.60;;;22.77;;
72920;SDS011;61064;51.654;5.476;2022-08-18T00:50:42;40.08;;;24.70;;
72920;SDS011;61064;51.654;5.476;2022-08-18T00:53:33;36.97;;;23.83;;
72920;SDS011;61064;51.654;5.476;2022-08-18T00:56:09;37.75;;;25.00;;
72920;SDS011;61064;51.654;5.476;2022-08-18T00:58:43;35.08;;;23.33;;
72920;SDS011;61064;51.654;5.476;2022-08-18T01:01:13;35.78;;;23.58;;
72920;SDS011;61064;51.654;5.476;2022-08-18T01:03:40;38.22;;;24.80;;
72920;SDS011;61064;51.654;5.476;2022-08-18T01:06:14;36.70;;;23.53;;
72920;SDS011;61064;51.654;5.476;2022-08-18T01:08:45;34.70;;;23.15;;
72920;SDS011;61064;51.654;5.476;2022-08-18T01:11:11;36.28;;;23.58;;
72920;SDS011;61064;51.654;5.476;2022-08-18T01:13:36;39.40;;;24.73;;
72920;SDS011;61064;51.654;5.476;2022-08-18T01:16:05;36.67;;;24.05;;
72920;SDS011;61064;51.654;5.476;2022-08-18T01:18:50;38.33;;;24.70;;
72920;SDS011;61064;51.654;5.476;2022-08-18T01:21:35;39.27;;;24.53;;
72920;SDS011;61064;51.654;5.476;2022-08-18T01:24:28;37.58;;;23.85;;
72920;SDS011;61064;51.654;5.476;2022-08-18T01:27:15;37.60;;;25.15;;
72920;SDS011;61064;51.654;5.476;2022-08-18T01:29:45;39.05;;;26.38;;
72920;SDS011;61064;51.654;5.476;2022-08-18T01:32:16;39.47;;;26.83;;
72920;SDS011;61064;51.654;5.476;2022-08-18T01:34:45;40.90;;;25.50;;
72920;SDS011;61064;51.654;5.476;2022-08-18T01:37:11;36.78;;;25.92;;
72920;SDS011;61064;51.654;5.476;2022-08-18T01:39:37;43.10;;;26.73;;
72920;SDS011;61064;51.654;5.476;2022-08-18T01:42:03;45.77;;;27.63;;
72920;SDS011;61064;51.654;5.476;2022-08-18T01:44:28;44.17;;;28.30;;
72920;SDS011;61064;51.654;5.476;2022-08-18T01:46:53;48.50;;;28.63;;
72920;SDS011;61064;51.654;5.476;2022-08-18T01:49:20;46.27;;;28.30;;
72920;SDS011;61064;51.654;5.476;2022-08-18T01:51:46;43.28;;;28.35;;
72920;SDS011;61064;51.654;5.476;2022-08-18T01:54:13;44.22;;;28.38;;
72920;SDS011;61064;51.654;5.476;2022-08-18T01:56:39;46.42;;;29.02;;
72920;SDS011;61064;51.654;5.476;2022-08-18T01:59:07;44.93;;;28.10;;
72920;SDS011;61064;51.654;5.476;2022-08-18T02:01:37;45.33;;;28.73;;
72920;SDS011;61064;51.654;5.476;2022-08-18T02:04:03;47.38;;;29.27;;
72920;SDS011;61064;51.654;5.476;2022-08-18T02:06:31;43.47;;;26.98;;
72920;SDS011;61064;51.654;5.476;2022-08-18T02:08:57;44.10;;;27.80;;
72920;SDS011;61064;51.654;5.476;2022-08-18T02:11:22;49.37;;;28.73;;
72920;SDS011;61064;51.654;5.476;2022-08-18T02:13:48;46.63;;;28.37;;
72920;SDS011;61064;51.654;5.476;2022-08-18T02:16:13;49.33;;;30.17;;
72920;SDS011;61064;51.654;5.476;2022-08-18T02:18:40;45.40;;;28.30;;
72920;SDS011;61064;51.654;5.476;2022-08-18T02:21:13;44.88;;;27.85;;
72920;SDS011;61064;51.654;5.476;2022-08-18T02:23:41;46.08;;;29.33;;
72920;SDS011;61064;51.654;5.476;2022-08-18T02:26:09;43.85;;;28.13;;
72920;SDS011;61064;51.654;5.476;2022-08-18T02:28:36;44.57;;;27.47;;
72920;SDS011;61064;51.654;5.476;2022-08-18T02:31:06;41.40;;;27.73;;
72920;SDS011;61064;51.654;5.476;2022-08-18T02:33:33;42.10;;;26.75;;
72920;SDS011;61064;51.654;5.476;2022-08-18T02:35:59;47.05;;;28.15;;
72920;SDS011;61064;51.654;5.476;2022-08-18T02:38:25;46.67;;;27.23;;
72920;SDS011;61064;51.654;5.476;2022-08-18T02:40:57;48.33;;;28.05;;
72920;SDS011;61064;51.654;5.476;2022-08-18T02:43:24;41.77;;;27.63;;
72920;SDS011;61064;51.654;5.476;2022-08-18T02:45:50;44.83;;;27.95;;
72920;SDS011;61064;51.654;5.476;2022-08-18T02:48:15;46.80;;;27.73;;
72920;SDS011;61064;51.654;5.476;2022-08-18T02:50:40;42.90;;;28.10;;
72920;SDS011;61064;51.654;5.476;2022-08-18T02:53:12;42.87;;;26.33;;
72920;SDS011;61064;51.654;5.476;2022-08-18T02:55:47;41.58;;;26.15;;
72920;SDS011;61064;51.654;5.476;2022-08-18T02:58:12;43.23;;;27.70;;
72920;SDS011;61064;51.654;5.476;2022-08-18T03:00:38;46.20;;;27.07;;
72920;SDS011;61064;51.654;5.476;2022-08-18T03:03:04;44.00;;;27.47;;
72920;SDS011;61064;51.654;5.476;2022-08-18T03:05:29;42.08;;;26.23;;
72920;SDS011;61064;51.654;5.476;2022-08-18T03:07:55;42.23;;;27.47;;
72920;SDS011;61064;51.654;5.476;2022-08-18T03:10:20;41.60;;;26.60;;
72920;SDS011;61064;51.654;5.476;2022-08-18T03:12:46;42.70;;;27.33;;
72920;SDS011;61064;51.654;5.476;2022-08-18T03:15:11;42.67;;;26.80;;
72920;SDS011;61064;51.654;5.476;2022-08-18T03:17:37;41.27;;;26.87;;
72920;SDS011;61064;51.654;5.476;2022-08-18T03:20:04;41.72;;;27.35;;
72920;SDS011;61064;51.654;5.476;2022-08-18T03:22:30;41.88;;;26.63;;
72920;SDS011;61064;51.654;5.476;2022-08-18T03:24:56;43.70;;;27.00;;
72920;SDS011;61064;51.654;5.476;2022-08-18T03:27:22;41.30;;;25.77;;
72920;SDS011;61064;51.654;5.476;2022-08-18T03:29:48;42.38;;;26.35;;
72920;SDS011;61064;51.654;5.476;2022-08-18T03:32:14;43.60;;;26.38;;
72920;SDS011;61064;51.654;5.476;2022-08-18T03:34:39;39.80;;;25.77;;
72920;SDS011;61064;51.654;5.476;2022-08-18T03:37:06;39.15;;;26.13;;
72920;SDS011;61064;51.654;5.476;2022-08-18T03:39:32;41.53;;;25.67;;
72920;SDS011;61064;51.654;5.476;2022-08-18T03:41:58;42.70;;;26.35;;
72920;SDS011;61064;51.654;5.476;2022-08-18T03:44:23;45.80;;;27.63;;
72920;SDS011;61064;51.654;5.476;2022-08-18T03:46:49;44.40;;;27.60;;
72920;SDS011;61064;51.654;5.476;2022-08-18T03:49:15;45.63;;;27.83;;
72920;SDS011;61064;51.654;5.476;2022-08-18T03:51:43;43.60;;;26.15;;
72920;SDS011;61064;51.654;5.476;2022-08-18T03:54:11;41.75;;;26.10;;
72920;SDS011;61064;51.654;5.476;2022-08-18T03:56:38;43.47;;;27.20;;
72920;SDS011;61064;51.654;5.476;2022-08-18T03:59:10;46.85;;;26.98;;
72920;SDS011;61064;51.654;5.476;2022-08-18T04:01:39;39.47;;;25.60;;
72920;SDS011;61064;51.654;5.476;2022-08-18T04:04:07;40.25;;;25.83;;
72920;SDS011;61064;51.654;5.476;2022-08-18T04:06:37;42.55;;;26.27;;
72920;SDS011;61064;51.654;5.476;2022-08-18T04:09:06;40.33;;;26.17;;
72920;SDS011;61064;51.654;5.476;2022-08-18T04:11:34;44.33;;;26.88;;
72920;SDS011;61064;51.654;5.476;2022-08-18T04:14:01;41.28;;;26.60;;
72920;SDS011;61064;51.654;5.476;2022-08-18T04:16:27;45.57;;;26.77;;
72920;SDS011;61064;51.654;5.476;2022-08-18T04:18:54;47.83;;;27.33;;
72920;SDS011;61064;51.654;5.476;2022-08-18T04:21:24;44.10;;;26.48;;
72920;SDS011;61064;51.654;5.476;2022-08-18T04:23:49;43.90;;;28.00;;
72920;SDS011;61064;51.654;5.476;2022-08-18T04:26:14;47.70;;;27.58;;
72920;SDS011;61064;51.654;5.476;2022-08-18T04:28:42;44.00;;;26.10;;
72920;SDS011;61064;51.654;5.476;2022-08-18T04:31:08;42.90;;;26.75;;
72920;SDS011;61064;51.654;5.476;2022-08-18T04:33:37;44.53;;;27.10;;
72920;SDS011;61064;51.654;5.476;2022-08-18T04:36:10;42.97;;;27.07;;
72920;SDS011;61064;51.654;5.476;2022-08-18T04:38:39;44.03;;;25.92;;
72920;SDS011;61064;51.654;5.476;2022-08-18T04:41:09;49.25;;;27.88;;
72920;SDS011;61064;51.654;5.476;2022-08-18T04:43:39;44.22;;;27.30;;
72920;SDS011;61064;51.654;5.476;2022-08-18T04:46:05;48.28;;;27.50;;
72920;SDS011;61064;51.654;5.476;2022-08-18T04:48:31;44.47;;;26.23;;
72920;SDS011;61064;51.654;5.476;2022-08-18T04:51:08;43.70;;;25.85;;
72920;SDS011;61064;51.654;5.476;2022-08-18T04:53:38;44.97;;;25.55;;
72920;SDS011;61064;51.654;5.476;2022-08-18T04:56:15;42.05;;;25.48;;
72920;SDS011;61064;51.654;5.476;2022-08-18T04:58:50;46.97;;;26.60;;
72920;SDS011;61064;51.654;5.476;2022-08-18T05:01:18;47.05;;;26.60;;
72920;SDS011;61064;51.654;5.476;2022-08-18T05:03:46;43.72;;;26.73;;
72920;SDS011;61064;51.654;5.476;2022-08-18T05:06:12;43.58;;;25.92;;
72920;SDS011;61064;51.654;5.476;2022-08-18T05:08:38;45.07;;;26.93;;
72920;SDS011;61064;51.654;5.476;2022-08-18T05:11:03;42.97;;;26.60;;
72920;SDS011;61064;51.654;5.476;2022-08-18T05:13:29;46.47;;;27.02;;
72920;SDS011;61064;51.654;5.476;2022-08-18T05:15:55;45.73;;;27.03;;
72920;SDS011;61064;51.654;5.476;2022-08-18T05:18:22;49.38;;;27.27;;
72920;SDS011;61064;51.654;5.476;2022-08-18T05:20:51;45.88;;;27.38;;
72920;SDS011;61064;51.654;5.476;2022-08-18T05:23:19;45.53;;;26.85;;
72920;SDS011;61064;51.654;5.476;2022-08-18T05:25:45;46.93;;;26.63;;
72920;SDS011;61064;51.654;5.476;2022-08-18T05:28:11;46.58;;;27.60;;
72920;SDS011;61064;51.654;5.476;2022-08-18T05:30:37;46.05;;;25.85;;
72920;SDS011;61064;51.654;5.476;2022-08-18T05:33:05;45.13;;;27.25;;
72920;SDS011;61064;51.654;5.476;2022-08-18T05:35:33;47.80;;;26.23;;
72920;SDS011;61064;51.654;5.476;2022-08-18T05:38:11;45.72;;;27.33;;
72920;SDS011;61064;51.654;5.476;2022-08-18T05:40:42;45.95;;;26.52;;
72920;SDS011;61064;51.654;5.476;2022-08-18T05:43:10;48.95;;;26.25;;
72920;SDS011;61064;51.654;5.476;2022-08-18T05:45:37;43.78;;;25.92;;
72920;SDS011;61064;51.654;5.476;2022-08-18T05:48:05;44.80;;;26.20;;
72920;SDS011;61064;51.654;5.476;2022-08-18T05:50:31;44.95;;;26.25;;
72920;SDS011;61064;51.654;5.476;2022-08-18T05:53:02;48.90;;;26.40;;
72920;SDS011;61064;51.654;5.476;2022-08-18T05:55:38;44.17;;;26.08;;
72920;SDS011;61064;51.654;5.476;2022-08-18T06:00:51;41.67;;;25.15;;
72920;SDS011;61064;51.654;5.476;2022-08-18T06:03:28;39.60;;;25.30;;
72920;SDS011;61064;51.654;5.476;2022-08-18T06:06:03;41.50;;;24.60;;
72920;SDS011;61064;51.654;5.476;2022-08-18T06:08:39;35.42;;;23.38;;
72920;SDS011;61064;51.654;5.476;2022-08-18T06:11:08;39.10;;;23.23;;
72920;SDS011;61064;51.654;5.476;2022-08-18T06:13:35;37.77;;;23.93;;
72920;SDS011;61064;51.654;5.476;2022-08-18T06:16:17;40.33;;;24.42;;
72920;SDS011;61064;51.654;5.476;2022-08-18T06:18:54;35.63;;;22.13;;
72920;SDS011;61064;51.654;5.476;2022-08-18T06:22:01;36.10;;;22.20;;
72920;SDS011;61064;51.654;5.476;2022-08-18T06:27:37;34.53;;;20.63;;
72920;SDS011;61064;51.654;5.476;2022-08-18T06:30:12;31.60;;;20.20;;
72920;SDS011;61064;51.654;5.476;2022-08-18T06:40:48;31.73;;;19.33;;
72920;SDS011;61064;51.654;5.476;2022-08-18T06:43:24;29.88;;;18.45;;
72920;SDS011;61064;51.654;5.476;2022-08-18T06:45:52;30.05;;;18.13;;
72920;SDS011;61064;51.654;5.476;2022-08-18T06:51:18;23.50;;;16.20;;
72920;SDS011;61064;51.654;5.476;2022-08-18T06:56:22;23.17;;;15.90;;
72920;SDS011;61064;51.654;5.476;2022-08-18T06:58:52;23.10;;;13.80;;
72920;SDS011;61064;51.654;5.476;2022-08-18T07:01:19;23.10;;;15.00;;
72920;SDS011;61064;51.654;5.476;2022-08-18T07:03:54;21.35;;;14.02;;
72920;SDS011;61064;51.654;5.476;2022-08-18T07:08:49;24.48;;;14.40;;
72920;SDS011;61064;51.654;5.476;2022-08-18T07:13:55;21.00;;;13.13;;
72920;SDS011;61064;51.654;5.476;2022-08-18T07:16:38;22.42;;;12.63;;
72920;SDS011;61064;51.654;5.476;2022-08-18T07:19:10;18.20;;;12.90;;
72920;SDS011;61064;51.654;5.476;2022-08-18T07:21:37;19.30;;;12.30;;
72920;SDS011;61064;51.654;5.476;2022-08-18T07:24:08;17.48;;;11.40;;
72920;SDS011;61064;51.654;5.476;2022-08-18T07:32:38;18.67;;;11.60;;
72920;SDS011;61064;51.654;5.476;2022-08-18T07:35:16;18.38;;;11.90;;
72920;SDS011;61064;51.654;5.476;2022-08-18T07:37:55;16.50;;;10.90;;
72920;SDS011;61064;51.654;5.476;2022-08-18T07:40:36;14.77;;;9.15;;
72920;SDS011;61064;51.654;5.476;2022-08-18T07:43:23;15.82;;;9.68;;
72920;SDS011;61064;51.654;5.476;2022-08-18T07:46:01;14.90;;;9.60;;
72920;SDS011;61064;51.654;5.476;2022-08-18T07:48:36;13.52;;;9.23;;
72920;SDS011;61064;51.654;5.476;2022-08-18T07:53:42;14.85;;;8.82;;
72920;SDS011;61064;51.654;5.476;2022-08-18T07:56:22;14.43;;;9.35;;
72920;SDS011;61064;51.654;5.476;2022-08-18T07:59:15;14.07;;;8.65;;
72920;SDS011;61064;51.654;5.476;2022-08-18T08:01:45;13.60;;;8.52;;
72920;SDS011;61064;51.654;5.476;2022-08-18T08:07:20;16.27;;;9.70;;
72920;SDS011;61064;51.654;5.476;2022-08-18T08:15:02;13.10;;;8.88;;
72920;SDS011;61064;51.654;5.476;2022-08-18T08:17:41;13.97;;;8.60;;
72920;SDS011;61064;51.654;5.476;2022-08-18T08:20:34;14.48;;;8.73;;
72920;SDS011;61064;51.654;5.476;2022-08-18T08:25:48;12.68;;;8.02;;
72920;SDS011;61064;51.654;5.476;2022-08-18T08:28:47;13.35;;;8.07;;
72920;SDS011;61064;51.654;5.476;2022-08-18T08:37:05;14.90;;;8.93;;
72920;SDS011;61064;51.654;5.476;2022-08-18T08:39:38;15.43;;;8.65;;
72920;SDS011;61064;51.654;5.476;2022-08-18T08:42:11;13.52;;;8.50;;
72920;SDS011;61064;51.654;5.476;2022-08-18T08:44:54;12.60;;;8.23;;
72920;SDS011;61064;51.654;5.476;2022-08-18T08:47:28;13.35;;;8.68;;
72920;SDS011;61064;51.654;5.476;2022-08-18T08:50:04;10.55;;;7.22;;
72920;SDS011;61064;51.654;5.476;2022-08-18T08:55:10;11.20;;;6.30;;
72920;SDS011;61064;51.654;5.476;2022-08-18T08:57:46;11.60;;;5.68;;
72920;SDS011;61064;51.654;5.476;2022-08-18T09:00:15;9.50;;;5.63;;
72920;SDS011;61064;51.654;5.476;2022-08-18T09:02:47;10.23;;;5.80;;
72920;SDS011;61064;51.654;5.476;2022-08-18T09:05:40;11.00;;;5.30;;
72920;SDS011;61064;51.654;5.476;2022-08-18T09:08:32;9.80;;;5.00;;
72920;SDS011;61064;51.654;5.476;2022-08-18T09:28:13;10.73;;;5.57;;
72920;SDS011;61064;51.654;5.476;2022-08-18T09:39:20;10.30;;;7.00;;
72920;SDS011;61064;51.654;5.476;2022-08-18T09:42:33;12.88;;;7.85;;
72920;SDS011;61064;51.654;5.476;2022-08-18T09:45:04;13.83;;;9.03;;
72920;SDS011;61064;51.654;5.476;2022-08-18T09:57:24;13.93;;;8.40;;
72920;SDS011;61064;51.654;5.476;2022-08-18T10:05:35;12.80;;;9.90;;
72920;SDS011;61064;51.654;5.476;2022-08-18T10:18:22;13.93;;;10.10;;
72920;SDS011;61064;51.654;5.476;2022-08-18T10:21:17;14.93;;;10.63;;
72920;SDS011;61064;51.654;5.476;2022-08-18T10:28:56;12.63;;;9.57;;
72920;SDS011;61064;51.654;5.476;2022-08-18T10:31:28;14.07;;;9.32;;
72920;SDS011;61064;51.654;5.476;2022-08-18T10:36:58;11.65;;;8.93;;
72920;SDS011;61064;51.654;5.476;2022-08-18T10:39:25;12.23;;;8.77;;
72920;SDS011;61064;51.654;5.476;2022-08-18T10:44:50;11.13;;;8.43;;
72920;SDS011;61064;51.654;5.476;2022-08-18T10:47:25;12.00;;;8.95;;
72920;SDS011;61064;51.654;5.476;2022-08-18T10:49:53;11.50;;;8.32;;
72920;SDS011;61064;51.654;5.476;2022-08-18T10:58:17;12.68;;;9.00;;
72920;SDS011;61064;51.654;5.476;2022-08-18T11:03:34;12.47;;;9.63;;
72920;SDS011;61064;51.654;5.476;2022-08-18T11:06:08;13.98;;;9.82;;
72920;SDS011;61064;51.654;5.476;2022-08-18T11:08:41;15.60;;;10.43;;
72920;SDS011;61064;51.654;5.476;2022-08-18T11:11:10;14.57;;;10.75;;
72920;SDS011;61064;51.654;5.476;2022-08-18T11:13:55;14.00;;;10.27;;
72920;SDS011;61064;51.654;5.476;2022-08-18T11:19:21;13.70;;;9.70;;
72920;SDS011;61064;51.654;5.476;2022-08-18T11:21:47;13.40;;;9.63;;
72920;SDS011;61064;51.654;5.476;2022-08-18T11:24:28;15.50;;;11.30;;
72920;SDS011;61064;51.654;5.476;2022-08-18T11:32:08;14.18;;;10.52;;
72920;SDS011;61064;51.654;5.476;2022-08-18T11:39:49;11.65;;;8.25;;
72920;SDS011;61064;51.654;5.476;2022-08-18T11:42:25;11.07;;;7.45;;
72920;SDS011;61064;51.654;5.476;2022-08-18T11:44:54;12.75;;;7.93;;
72920;SDS011;61064;51.654;5.476;2022-08-18T11:47:26;11.53;;;7.80;;
72920;SDS011;61064;51.654;5.476;2022-08-18T11:50:05;12.82;;;8.40;;
72920;SDS011;61064;51.654;5.476;2022-08-18T11:52:51;11.45;;;9.05;;
72920;SDS011;61064;51.654;5.476;2022-08-18T11:55:27;12.73;;;8.73;;
72920;SDS011;61064;51.654;5.476;2022-08-18T11:57:55;11.57;;;8.77;;
72920;SDS011;61064;51.654;5.476;2022-08-18T12:00:39;12.57;;;8.68;;
72920;SDS011;61064;51.654;5.476;2022-08-18T12:08:58;12.67;;;8.80;;
72920;SDS011;61064;51.654;5.476;2022-08-18T12:11:29;13.73;;;9.40;;
72920;SDS011;61064;51.654;5.476;2022-08-18T12:14:03;13.43;;;9.50;;
72920;SDS011;61064;51.654;5.476;2022-08-18T12:19:08;11.95;;;8.95;;
72920;SDS011;61064;51.654;5.476;2022-08-18T12:21:40;10.47;;;7.30;;
72920;SDS011;61064;51.654;5.476;2022-08-18T12:24:28;11.40;;;8.05;;
72920;SDS011;61064;51.654;5.476;2022-08-18T12:26:56;12.05;;;8.55;;
72920;SDS011;61064;51.654;5.476;2022-08-18T12:29:22;10.60;;;7.00;;
72920;SDS011;61064;51.654;5.476;2022-08-18T12:31:49;10.25;;;6.72;;
72920;SDS011;61064;51.654;5.476;2022-08-18T12:34:16;9.00;;;5.40;;
72920;SDS011;61064;51.654;5.476;2022-08-18T12:36:43;8.77;;;5.20;;
72920;SDS011;61064;51.654;5.476;2022-08-18T12:39:09;9.27;;;5.85;;
72920;SDS011;61064;51.654;5.476;2022-08-18T12:41:35;10.00;;;5.27;;
72920;SDS011;61064;51.654;5.476;2022-08-18T12:44:00;10.63;;;6.30;;
72920;SDS011;61064;51.654;5.476;2022-08-18T12:46:25;8.63;;;5.37;;
72920;SDS011;61064;51.654;5.476;2022-08-18T12:48:51;7.80;;;4.90;;
72920;SDS011;61064;51.654;5.476;2022-08-18T12:51:17;11.50;;;7.07;;
72920;SDS011;61064;51.654;5.476;2022-08-18T12:53:42;9.45;;;6.30;;
72920;SDS011;61064;51.654;5.476;2022-08-18T12:56:16;8.97;;;5.40;;
72920;SDS011;61064;51.654;5.476;2022-08-18T12:58:42;10.73;;;6.00;;
72920;SDS011;61064;51.654;5.476;2022-08-18T13:01:08;8.73;;;6.22;;
72920;SDS011;61064;51.654;5.476;2022-08-18T13:03:34;10.60;;;7.20;;
72920;SDS011;61064;51.654;5.476;2022-08-18T13:05:59;11.97;;;7.60;;
72920;SDS011;61064;51.654;5.476;2022-08-18T13:08:24;8.87;;;6.03;;
72920;SDS011;61064;51.654;5.476;2022-08-18T13:10:50;10.73;;;7.30;;
72920;SDS011;61064;51.654;5.476;2022-08-18T13:13:17;10.55;;;7.70;;
72920;SDS011;61064;51.654;5.476;2022-08-18T13:15:44;11.40;;;8.47;;
72920;SDS011;61064;51.654;5.476;2022-08-18T13:18:10;11.27;;;8.43;;
72920;SDS011;61064;51.654;5.476;2022-08-18T13:20:36;13.00;;;8.98;;
72920;SDS011;61064;51.654;5.476;2022-08-18T13:23:02;12.37;;;9.47;;
72920;SDS011;61064;51.654;5.476;2022-08-18T13:25:27;13.65;;;8.90;;
72920;SDS011;61064;51.654;5.476;2022-08-18T13:27:53;11.07;;;8.70;;
72920;SDS011;61064;51.654;5.476;2022-08-18T13:30:19;13.23;;;9.18;;
72920;SDS011;61064;51.654;5.476;2022-08-18T13:32:45;11.35;;;8.00;;
72920;SDS011;61064;51.654;5.476;2022-08-18T13:35:10;11.53;;;8.90;;
72920;SDS011;61064;51.654;5.476;2022-08-18T13:37:36;11.63;;;8.20;;
72920;SDS011;61064;51.654;5.476;2022-08-18T13:40:02;12.38;;;8.40;;
72920;SDS011;61064;51.654;5.476;2022-08-18T13:42:30;12.60;;;8.02;;
72920;SDS011;61064;51.654;5.476;2022-08-18T13:44:58;11.47;;;8.07;;
72920;SDS011;61064;51.654;5.476;2022-08-18T13:47:25;11.80;;;8.13;;
72920;SDS011;61064;51.654;5.476;2022-08-18T13:49:53;11.35;;;7.93;;
72920;SDS011;61064;51.654;5.476;2022-08-18T13:52:18;10.73;;;6.87;;
72920;SDS011;61064;51.654;5.476;2022-08-18T13:54:44;10.93;;;7.80;;
72920;SDS011;61064;51.654;5.476;2022-08-18T13:57:10;10.18;;;7.18;;
72920;SDS011;61064;51.654;5.476;2022-08-18T13:59:36;11.38;;;7.10;;
72920;SDS011;61064;51.654;5.476;2022-08-18T14:02:04;10.30;;;7.40;;
72920;SDS011;61064;51.654;5.476;2022-08-18T14:04:33;11.97;;;7.77;;
72920;SDS011;61064;51.654;5.476;2022-08-18T14:06:59;11.80;;;8.48;;
72920;SDS011;61064;51.654;5.476;2022-08-18T14:09:25;10.93;;;7.28;;
72920;SDS011;61064;51.654;5.476;2022-08-18T14:11:52;10.43;;;7.25;;
72920;SDS011;61064;51.654;5.476;2022-08-18T14:14:17;11.53;;;7.40;;
72920;SDS011;61064;51.654;5.476;2022-08-18T14:16:44;9.88;;;6.40;;
72920;SDS011;61064;51.654;5.476;2022-08-18T14:19:10;10.43;;;7.07;;
72920;SDS011;61064;51.654;5.476;2022-08-18T14:21:54;9.88;;;6.35;;
72920;SDS011;61064;51.654;5.476;2022-08-18T14:24:39;8.90;;;5.90;;
72920;SDS011;61064;51.654;5.476;2022-08-18T14:27:29;11.18;;;6.35;;
72920;SDS011;61064;51.654;5.476;2022-08-18T14:29:58;8.70;;;5.72;;
72920;SDS011;61064;51.654;5.476;2022-08-18T14:32:26;8.77;;;5.20;;
72920;SDS011;61064;51.654;5.476;2022-08-18T14:34:54;8.55;;;4.97;;
72920;SDS011;61064;51.654;5.476;2022-08-18T14:37:22;9.63;;;5.20;;
72920;SDS011;61064;51.654;5.476;2022-08-18T14:39:48;8.60;;;4.93;;
72920;SDS011;61064;51.654;5.476;2022-08-18T14:42:14;8.53;;;5.03;;
72920;SDS011;61064;51.654;5.476;2022-08-18T14:44:42;7.53;;;4.65;;
72920;SDS011;61064;51.654;5.476;2022-08-18T14:47:07;8.07;;;5.25;;
72920;SDS011;61064;51.654;5.476;2022-08-18T14:49:33;8.20;;;5.17;;
72920;SDS011;61064;51.654;5.476;2022-08-18T14:51:59;8.53;;;5.37;;
72920;SDS011;61064;51.654;5.476;2022-08-18T14:54:25;7.32;;;4.43;;
72920;SDS011;61064;51.654;5.476;2022-08-18T14:56:51;7.47;;;4.60;;
72920;SDS011;61064;51.654;5.476;2022-08-18T14:59:16;8.37;;;4.13;;
72920;SDS011;61064;51.654;5.476;2022-08-18T15:01:42;8.23;;;4.50;;
72920;SDS011;61064;51.654;5.476;2022-08-18T15:04:07;8.73;;;4.60;;
72920;SDS011;61064;51.654;5.476;2022-08-18T15:06:35;9.75;;;5.25;;
72920;SDS011;61064;51.654;5.476;2022-08-18T15:09:00;8.87;;;4.83;;
72920;SDS011;61064;51.654;5.476;2022-08-18T15:11:26;10.27;;;5.32;;
72920;SDS011;61064;51.654;5.476;2022-08-18T15:13:52;8.53;;;4.70;;
72920;SDS011;61064;51.654;5.476;2022-08-18T15:16:18;7.57;;;4.63;;
72920;SDS011;61064;51.654;5.476;2022-08-18T15:18:45;7.25;;;4.05;;
72920;SDS011;61064;51.654;5.476;2022-08-18T15:21:14;7.50;;;3.90;;
72920;SDS011;61064;51.654;5.476;2022-08-18T15:23:59;7.40;;;4.10;;
72920;SDS011;61064;51.654;5.476;2022-08-18T15:26:43;7.85;;;3.90;;
72920;SDS011;61064;51.654;5.476;2022-08-18T15:29:10;7.03;;;3.20;;
72920;SDS011;61064;51.654;5.476;2022-08-18T15:31:36;7.43;;;3.90;;
72920;SDS011;61064;51.654;5.476;2022-08-18T15:34:02;7.20;;;3.72;;
72920;SDS011;61064;51.654;5.476;2022-08-18T15:36:28;9.48;;;4.45;;
72920;SDS011;61064;51.654;5.476;2022-08-18T15:38:55;8.43;;;4.40;;
72920;SDS011;61064;51.654;5.476;2022-08-18T15:41:33;7.15;;;4.20;;
72920;SDS011;61064;51.654;5.476;2022-08-18T15:44:10;7.40;;;3.90;;
72920;SDS011;61064;51.654;5.476;2022-08-18T15:46:37;8.13;;;4.28;;
72920;SDS011;61064;51.654;5.476;2022-08-18T15:49:05;9.23;;;3.80;;
72920;SDS011;61064;51.654;5.476;2022-08-18T15:51:35;8.02;;;4.38;;
72920;SDS011;61064;51.654;5.476;2022-08-18T15:54:02;9.43;;;4.40;;
72920;SDS011;61064;51.654;5.476;2022-08-18T15:56:29;7.70;;;4.53;;
72920;SDS011;61064;51.654;5.476;2022-08-18T15:58:55;9.05;;;4.70;;
72920;SDS011;61064;51.654;5.476;2022-08-18T16:01:24;8.55;;;4.40;;
72920;SDS011;61064;51.654;5.476;2022-08-18T16:03:50;9.52;;;4.47;;
72920;SDS011;61064;51.654;5.476;2022-08-18T16:06:23;7.77;;;4.13;;
72920;SDS011;61064;51.654;5.476;2022-08-18T16:08:50;9.02;;;4.20;;
72920;SDS011;61064;51.654;5.476;2022-08-18T16:11:17;6.50;;;3.80;;
72920;SDS011;61064;51.654;5.476;2022-08-18T16:13:44;7.80;;;4.63;;
72920;SDS011;61064;51.654;5.476;2022-08-18T16:16:12;7.10;;;3.97;;
72920;SDS011;61064;51.654;5.476;2022-08-18T16:18:40;7.33;;;4.27;;
72920;SDS011;61064;51.654;5.476;2022-08-18T16:21:06;7.82;;;4.43;;
72920;SDS011;61064;51.654;5.476;2022-08-18T16:23:35;8.40;;;4.10;;
72920;SDS011;61064;51.654;5.476;2022-08-18T16:26:05;7.53;;;4.00;;
72920;SDS011;61064;51.654;5.476;2022-08-18T16:28:31;8.77;;;4.20;;
72920;SDS011;61064;51.654;5.476;2022-08-18T16:30:56;9.03;;;4.77;;
72920;SDS011;61064;51.654;5.476;2022-08-18T16:33:22;8.43;;;4.33;;
72920;SDS011;61064;51.654;5.476;2022-08-18T16:35:47;8.98;;;4.50;;
72920;SDS011;61064;51.654;5.476;2022-08-18T16:38:15;8.10;;;4.30;;
72920;SDS011;61064;51.654;5.476;2022-08-18T16:40:41;8.13;;;4.55;;
72920;SDS011;61064;51.654;5.476;2022-08-18T16:43:06;7.30;;;3.93;;
72920;SDS011;61064;51.654;5.476;2022-08-18T16:45:32;7.43;;;4.50;;
72920;SDS011;61064;51.654;5.476;2022-08-18T16:48:00;8.10;;;4.03;;
72920;SDS011;61064;51.654;5.476;2022-08-18T16:50:26;8.80;;;4.60;;
72920;SDS011;61064;51.654;5.476;2022-08-18T16:52:52;7.80;;;4.20;;
72920;SDS011;61064;51.654;5.476;2022-08-18T16:55:18;8.10;;;4.30;;
72920;SDS011;61064;51.654;5.476;2022-08-18T16:57:45;7.77;;;4.13;;
72920;SDS011;61064;51.654;5.476;2022-08-18T17:00:29;10.38;;;4.60;;
72920;SDS011;61064;51.654;5.476;2022-08-18T17:03:22;7.45;;;4.05;;
72920;SDS011;61064;51.654;5.476;2022-08-18T17:06:08;8.55;;;4.60;;
72920;SDS011;61064;51.654;5.476;2022-08-18T17:08:36;7.97;;;4.22;;
72920;SDS011;61064;51.654;5.476;2022-08-18T17:11:03;8.53;;;4.60;;
72920;SDS011;61064;51.654;5.476;2022-08-18T17:13:32;7.38;;;4.20;;